sensor_id;sensor_type;location;lat;lon;timestamp;P1;durP1;ratioP1;P2;durP2;ratioP2
52035;SDS011;38046;49.448;32.074;2023-02-18T00:01:25;22.50;;;14.95;;
52035;SDS011;38046;49.448;32.074;2023-02-18T00:03:54;23.27;;;15.60;;
52035;SDS011;38046;49.448;32.074;2023-02-18T00:08:48;25.05;;;15.43;;
52035;SDS011;38046;49.448;32.074;2023-02-18T00:11:15;21.58;;;14.07;;
52035;SDS011;38046;49.448;32.074;2023-02-18T00:13:41;26.02;;;15.77;;
52035;SDS011;38046;49.448;32.074;2023-02-18T00:16:09;24.23;;;15.38;;
52035;SDS011;38046;49.448;32.074;2023-02-18T00:18:36;21.25;;;14.57;;
52035;SDS011;38046;49.448;32.074;2023-02-18T00:21:03;22.23;;;14.27;;
52035;SDS011;38046;49.448;32.074;2023-02-18T00:23:30;23.73;;;14.52;;
52035;SDS011;38046;49.448;32.074;2023-02-18T00:26:03;25.75;;;15.23;;
52035;SDS011;38046;49.448;32.074;2023-02-18T00:28:31;22.45;;;15.38;;
52035;SDS011;38046;49.448;32.074;2023-02-18T00:30:57;21.35;;;15.02;;
52035;SDS011;38046;49.448;32.074;2023-02-18T00:33:22;23.33;;;14.68;;
52035;SDS011;38046;49.448;32.074;2023-02-18T00:35:48;25.40;;;15.80;;
52035;SDS011;38046;49.448;32.074;2023-02-18T00:38:15;26.58;;;15.32;;
52035;SDS011;38046;49.448;32.074;2023-02-18T00:40:41;22.90;;;14.52;;
52035;SDS011;38046;49.448;32.074;2023-02-18T00:43:07;21.65;;;14.80;;
52035;SDS011;38046;49.448;32.074;2023-02-18T00:45:34;24.00;;;15.85;;
52035;SDS011;38046;49.448;32.074;2023-02-18T00:47:59;22.83;;;14.35;;
52035;SDS011;38046;49.448;32.074;2023-02-18T00:50:25;26.38;;;15.98;;
52035;SDS011;38046;49.448;32.074;2023-02-18T00:52:50;25.00;;;15.02;;
52035;SDS011;38046;49.448;32.074;2023-02-18T00:55:16;25.38;;;15.93;;
52035;SDS011;38046;49.448;32.074;2023-02-18T00:57:41;22.20;;;14.48;;
52035;SDS011;38046;49.448;32.074;2023-02-18T01:00:07;22.50;;;14.57;;
52035;SDS011;38046;49.448;32.074;2023-02-18T01:02:34;23.40;;;15.90;;
52035;SDS011;38046;49.448;32.074;2023-02-18T01:04:59;25.25;;;16.70;;
52035;SDS011;38046;49.448;32.074;2023-02-18T01:07:25;23.52;;;15.57;;
52035;SDS011;38046;49.448;32.074;2023-02-18T01:09:51;27.45;;;17.20;;
52035;SDS011;38046;49.448;32.074;2023-02-18T01:12:17;27.80;;;16.27;;
52035;SDS011;38046;49.448;32.074;2023-02-18T01:14:43;28.15;;;18.13;;
52035;SDS011;38046;49.448;32.074;2023-02-18T01:17:08;24.83;;;16.52;;
52035;SDS011;38046;49.448;32.074;2023-02-18T01:19:34;29.55;;;17.73;;
52035;SDS011;38046;49.448;32.074;2023-02-18T01:22:00;31.17;;;18.92;;
52035;SDS011;38046;49.448;32.074;2023-02-18T01:24:26;33.95;;;19.92;;
52035;SDS011;38046;49.448;32.074;2023-02-18T01:26:51;33.85;;;20.60;;
52035;SDS011;38046;49.448;32.074;2023-02-18T01:29:17;33.97;;;21.40;;
52035;SDS011;38046;49.448;32.074;2023-02-18T01:31:42;35.00;;;21.70;;
52035;SDS011;38046;49.448;32.074;2023-02-18T01:34:08;36.97;;;20.75;;
52035;SDS011;38046;49.448;32.074;2023-02-18T01:36:34;36.75;;;22.58;;
52035;SDS011;38046;49.448;32.074;2023-02-18T01:38:59;29.92;;;19.85;;
52035;SDS011;38046;49.448;32.074;2023-02-18T01:41:25;29.52;;;18.90;;
52035;SDS011;38046;49.448;32.074;2023-02-18T01:44:09;31.25;;;19.45;;
52035;SDS011;38046;49.448;32.074;2023-02-18T01:46:40;28.55;;;19.45;;
52035;SDS011;38046;49.448;32.074;2023-02-18T01:49:06;31.45;;;20.52;;
52035;SDS011;38046;49.448;32.074;2023-02-18T01:51:43;28.15;;;18.83;;
52035;SDS011;38046;49.448;32.074;2023-02-18T01:54:17;31.35;;;19.38;;
52035;SDS011;38046;49.448;32.074;2023-02-18T01:59:30;36.05;;;21.80;;
52035;SDS011;38046;49.448;32.074;2023-02-18T02:02:07;33.25;;;22.25;;
52035;SDS011;38046;49.448;32.074;2023-02-18T02:04:39;35.83;;;22.05;;
52035;SDS011;38046;49.448;32.074;2023-02-18T02:07:05;37.35;;;23.00;;
52035;SDS011;38046;49.448;32.074;2023-02-18T02:09:31;38.97;;;21.88;;
52035;SDS011;38046;49.448;32.074;2023-02-18T02:12:01;37.65;;;23.42;;
52035;SDS011;38046;49.448;32.074;2023-02-18T02:25:46;35.17;;;20.83;;
52035;SDS011;38046;49.448;32.074;2023-02-18T02:34:47;35.80;;;21.35;;
52035;SDS011;38046;49.448;32.074;2023-02-18T02:37:24;34.17;;;21.33;;
52035;SDS011;38046;49.448;32.074;2023-02-18T02:51:01;33.13;;;21.48;;
52035;SDS011;38046;49.448;32.074;2023-02-18T02:53:29;36.15;;;22.23;;
52035;SDS011;38046;49.448;32.074;2023-02-18T02:55:57;37.63;;;22.02;;
52035;SDS011;38046;49.448;32.074;2023-02-18T02:58:23;32.13;;;20.65;;
52035;SDS011;38046;49.448;32.074;2023-02-18T03:17:13;33.75;;;19.33;;
52035;SDS011;38046;49.448;32.074;2023-02-18T03:19:48;34.08;;;19.75;;
52035;SDS011;38046;49.448;32.074;2023-02-18T03:22:20;29.52;;;19.20;;
52035;SDS011;38046;49.448;32.074;2023-02-18T03:24:49;33.90;;;18.67;;
52035;SDS011;38046;49.448;32.074;2023-02-18T03:27:22;35.08;;;19.10;;
52035;SDS011;38046;49.448;32.074;2023-02-18T03:30:14;33.25;;;17.92;;
52035;SDS011;38046;49.448;32.074;2023-02-18T03:32:42;32.97;;;19.42;;
52035;SDS011;38046;49.448;32.074;2023-02-18T03:35:12;29.73;;;19.13;;
52035;SDS011;38046;49.448;32.074;2023-02-18T03:37:50;28.38;;;17.77;;
52035;SDS011;38046;49.448;32.074;2023-02-18T03:40:24;31.80;;;18.58;;
52035;SDS011;38046;49.448;32.074;2023-02-18T03:42:55;34.58;;;18.60;;
52035;SDS011;38046;49.448;32.074;2023-02-18T03:45:22;28.92;;;17.95;;
52035;SDS011;38046;49.448;32.074;2023-02-18T03:47:48;31.42;;;17.48;;
52035;SDS011;38046;49.448;32.074;2023-02-18T03:50:14;31.88;;;19.30;;
52035;SDS011;38046;49.448;32.074;2023-02-18T03:52:40;30.48;;;18.90;;
52035;SDS011;38046;49.448;32.074;2023-02-18T03:55:05;29.83;;;18.00;;
52035;SDS011;38046;49.448;32.074;2023-02-18T03:57:33;31.95;;;18.58;;
52035;SDS011;38046;49.448;32.074;2023-02-18T03:59:59;33.40;;;19.15;;
52035;SDS011;38046;49.448;32.074;2023-02-18T04:02:24;33.13;;;18.88;;
52035;SDS011;38046;49.448;32.074;2023-02-18T04:04:50;34.30;;;18.45;;
52035;SDS011;38046;49.448;32.074;2023-02-18T04:07:16;27.95;;;16.92;;
52035;SDS011;38046;49.448;32.074;2023-02-18T04:09:41;27.92;;;17.13;;
52035;SDS011;38046;49.448;32.074;2023-02-18T04:12:07;30.70;;;18.35;;
52035;SDS011;38046;49.448;32.074;2023-02-18T04:14:33;29.20;;;17.90;;
52035;SDS011;38046;49.448;32.074;2023-02-18T04:16:58;31.48;;;18.17;;
52035;SDS011;38046;49.448;32.074;2023-02-18T04:19:25;32.05;;;18.95;;
52035;SDS011;38046;49.448;32.074;2023-02-18T04:21:51;33.90;;;18.45;;
52035;SDS011;38046;49.448;32.074;2023-02-18T04:24:17;30.10;;;18.30;;
52035;SDS011;38046;49.448;32.074;2023-02-18T04:26:42;34.20;;;18.70;;
52035;SDS011;38046;49.448;32.074;2023-02-18T04:29:08;30.00;;;18.92;;
52035;SDS011;38046;49.448;32.074;2023-02-18T04:31:34;31.25;;;18.90;;
52035;SDS011;38046;49.448;32.074;2023-02-18T04:33:59;28.63;;;16.38;;
52035;SDS011;38046;49.448;32.074;2023-02-18T04:36:25;30.30;;;17.27;;
52035;SDS011;38046;49.448;32.074;2023-02-18T04:38:50;28.35;;;17.85;;
52035;SDS011;38046;49.448;32.074;2023-02-18T04:41:16;31.33;;;16.50;;
52035;SDS011;38046;49.448;32.074;2023-02-18T04:43:42;31.13;;;17.13;;
52035;SDS011;38046;49.448;32.074;2023-02-18T04:46:07;28.33;;;16.45;;
52035;SDS011;38046;49.448;32.074;2023-02-18T04:48:33;27.58;;;16.90;;
52035;SDS011;38046;49.448;32.074;2023-02-18T04:50:59;29.02;;;16.85;;
52035;SDS011;38046;49.448;32.074;2023-02-18T04:53:25;29.13;;;16.50;;
52035;SDS011;38046;49.448;32.074;2023-02-18T04:55:51;29.52;;;17.90;;
52035;SDS011;38046;49.448;32.074;2023-02-18T04:58:18;27.60;;;16.85;;
52035;SDS011;38046;49.448;32.074;2023-02-18T05:00:44;29.60;;;17.05;;
52035;SDS011;38046;49.448;32.074;2023-02-18T05:03:10;26.60;;;16.27;;
52035;SDS011;38046;49.448;32.074;2023-02-18T05:05:36;27.80;;;16.95;;
52035;SDS011;38046;49.448;32.074;2023-02-18T05:08:02;27.27;;;17.10;;
52035;SDS011;38046;49.448;32.074;2023-02-18T05:10:28;29.88;;;16.98;;
52035;SDS011;38046;49.448;32.074;2023-02-18T05:12:54;26.48;;;16.48;;
52035;SDS011;38046;49.448;32.074;2023-02-18T05:15:19;27.55;;;15.75;;
52035;SDS011;38046;49.448;32.074;2023-02-18T05:17:45;27.52;;;16.73;;
52035;SDS011;38046;49.448;32.074;2023-02-18T05:20:11;26.05;;;15.73;;
52035;SDS011;38046;49.448;32.074;2023-02-18T05:22:37;23.20;;;15.20;;
52035;SDS011;38046;49.448;32.074;2023-02-18T05:25:02;23.85;;;14.95;;
52035;SDS011;38046;49.448;32.074;2023-02-18T05:27:28;26.27;;;15.27;;
52035;SDS011;38046;49.448;32.074;2023-02-18T05:29:54;27.67;;;16.70;;
52035;SDS011;38046;49.448;32.074;2023-02-18T05:32:21;23.73;;;15.73;;
52035;SDS011;38046;49.448;32.074;2023-02-18T05:34:47;27.70;;;15.85;;
52035;SDS011;38046;49.448;32.074;2023-02-18T05:37:13;25.63;;;15.55;;
52035;SDS011;38046;49.448;32.074;2023-02-18T05:39:39;24.67;;;15.63;;
52035;SDS011;38046;49.448;32.074;2023-02-18T05:42:06;25.10;;;16.15;;
52035;SDS011;38046;49.448;32.074;2023-02-18T05:44:31;26.05;;;15.20;;
52035;SDS011;38046;49.448;32.074;2023-02-18T05:46:58;25.70;;;15.15;;
52035;SDS011;38046;49.448;32.074;2023-02-18T05:49:26;27.13;;;15.00;;
52035;SDS011;38046;49.448;32.074;2023-02-18T05:51:52;27.42;;;17.10;;
52035;SDS011;38046;49.448;32.074;2023-02-18T05:54:18;25.23;;;15.07;;
52035;SDS011;38046;49.448;32.074;2023-02-18T05:56:44;25.95;;;16.17;;
52035;SDS011;38046;49.448;32.074;2023-02-18T05:59:09;26.48;;;16.45;;
52035;SDS011;38046;49.448;32.074;2023-02-18T06:01:35;26.70;;;16.60;;
52035;SDS011;38046;49.448;32.074;2023-02-18T06:04:01;24.92;;;15.65;;
52035;SDS011;38046;49.448;32.074;2023-02-18T06:06:26;25.67;;;15.07;;
52035;SDS011;38046;49.448;32.074;2023-02-18T06:08:52;26.42;;;15.57;;
52035;SDS011;38046;49.448;32.074;2023-02-18T06:11:18;25.55;;;14.65;;
52035;SDS011;38046;49.448;32.074;2023-02-18T06:13:44;24.77;;;14.93;;
52035;SDS011;38046;49.448;32.074;2023-02-18T06:16:09;22.42;;;13.95;;
52035;SDS011;38046;49.448;32.074;2023-02-18T06:18:35;22.75;;;15.13;;
52035;SDS011;38046;49.448;32.074;2023-02-18T06:21:01;23.00;;;14.25;;
52035;SDS011;38046;49.448;32.074;2023-02-18T06:23:27;25.60;;;14.55;;
52035;SDS011;38046;49.448;32.074;2023-02-18T06:25:52;26.67;;;16.38;;
52035;SDS011;38046;49.448;32.074;2023-02-18T06:28:18;22.95;;;14.73;;
52035;SDS011;38046;49.448;32.074;2023-02-18T06:30:44;22.17;;;13.32;;
52035;SDS011;38046;49.448;32.074;2023-02-18T06:33:10;23.02;;;13.85;;
52035;SDS011;38046;49.448;32.074;2023-02-18T06:35:36;23.63;;;14.35;;
52035;SDS011;38046;49.448;32.074;2023-02-18T06:38:02;23.52;;;13.68;;
52035;SDS011;38046;49.448;32.074;2023-02-18T06:40:28;21.67;;;14.38;;
52035;SDS011;38046;49.448;32.074;2023-02-18T06:42:54;22.25;;;13.95;;
52035;SDS011;38046;49.448;32.074;2023-02-18T06:45:20;21.92;;;13.57;;
52035;SDS011;38046;49.448;32.074;2023-02-18T06:47:45;20.70;;;13.20;;
52035;SDS011;38046;49.448;32.074;2023-02-18T06:50:11;26.85;;;14.18;;
52035;SDS011;38046;49.448;32.074;2023-02-18T06:52:37;24.48;;;15.50;;
52035;SDS011;38046;49.448;32.074;2023-02-18T06:55:06;23.50;;;13.77;;
52035;SDS011;38046;49.448;32.074;2023-02-18T06:57:33;24.15;;;15.38;;
52035;SDS011;38046;49.448;32.074;2023-02-18T06:59:59;29.33;;;16.52;;
52035;SDS011;38046;49.448;32.074;2023-02-18T07:02:25;27.17;;;15.77;;
52035;SDS011;38046;49.448;32.074;2023-02-18T07:04:51;23.15;;;13.73;;
52035;SDS011;38046;49.448;32.074;2023-02-18T07:07:17;19.52;;;13.00;;
52035;SDS011;38046;49.448;32.074;2023-02-18T07:09:43;24.58;;;14.82;;
52035;SDS011;38046;49.448;32.074;2023-02-18T07:12:09;21.27;;;13.75;;
52035;SDS011;38046;49.448;32.074;2023-02-18T07:14:35;22.40;;;13.85;;
52035;SDS011;38046;49.448;32.074;2023-02-18T07:17:00;23.05;;;14.35;;
52035;SDS011;38046;49.448;32.074;2023-02-18T07:19:26;22.55;;;14.23;;
52035;SDS011;38046;49.448;32.074;2023-02-18T07:21:52;19.88;;;13.43;;
52035;SDS011;38046;49.448;32.074;2023-02-18T07:24:21;24.90;;;13.98;;
52035;SDS011;38046;49.448;32.074;2023-02-18T07:26:47;22.48;;;13.68;;
52035;SDS011;38046;49.448;32.074;2023-02-18T07:29:12;22.23;;;14.25;;
52035;SDS011;38046;49.448;32.074;2023-02-18T07:31:38;21.75;;;13.98;;
52035;SDS011;38046;49.448;32.074;2023-02-18T07:34:04;23.15;;;13.90;;
52035;SDS011;38046;49.448;32.074;2023-02-18T07:36:29;21.27;;;13.82;;
52035;SDS011;38046;49.448;32.074;2023-02-18T07:38:55;19.75;;;13.45;;
52035;SDS011;38046;49.448;32.074;2023-02-18T07:41:21;20.65;;;12.50;;
52035;SDS011;38046;49.448;32.074;2023-02-18T07:43:48;24.27;;;14.77;;
52035;SDS011;38046;49.448;32.074;2023-02-18T07:46:14;18.63;;;12.90;;
52035;SDS011;38046;49.448;32.074;2023-02-18T07:48:40;21.27;;;14.15;;
52035;SDS011;38046;49.448;32.074;2023-02-18T07:51:07;24.73;;;14.27;;
52035;SDS011;38046;49.448;32.074;2023-02-18T07:53:34;22.33;;;13.68;;
52035;SDS011;38046;49.448;32.074;2023-02-18T07:56:01;19.20;;;11.98;;
52035;SDS011;38046;49.448;32.074;2023-02-18T07:58:28;24.02;;;14.80;;
52035;SDS011;38046;49.448;32.074;2023-02-18T08:00:56;19.40;;;13.52;;
52035;SDS011;38046;49.448;32.074;2023-02-18T08:03:23;20.63;;;13.68;;
52035;SDS011;38046;49.448;32.074;2023-02-18T08:05:51;24.75;;;14.70;;
52035;SDS011;38046;49.448;32.074;2023-02-18T08:08:18;24.30;;;16.05;;
52035;SDS011;38046;49.448;32.074;2023-02-18T08:10:49;21.15;;;13.77;;
52035;SDS011;38046;49.448;32.074;2023-02-18T08:13:15;25.90;;;15.07;;
52035;SDS011;38046;49.448;32.074;2023-02-18T08:15:41;22.17;;;14.50;;
52035;SDS011;38046;49.448;32.074;2023-02-18T08:18:08;21.38;;;14.80;;
52035;SDS011;38046;49.448;32.074;2023-02-18T08:20:40;21.88;;;14.93;;
52035;SDS011;38046;49.448;32.074;2023-02-18T08:23:05;17.83;;;12.57;;
52035;SDS011;38046;49.448;32.074;2023-02-18T08:25:31;23.58;;;15.20;;
52035;SDS011;38046;49.448;32.074;2023-02-18T08:27:57;21.65;;;14.13;;
52035;SDS011;38046;49.448;32.074;2023-02-18T08:30:23;24.67;;;14.15;;
52035;SDS011;38046;49.448;32.074;2023-02-18T08:32:49;17.52;;;12.98;;
52035;SDS011;38046;49.448;32.074;2023-02-18T08:35:15;17.20;;;12.38;;
52035;SDS011;38046;49.448;32.074;2023-02-18T08:37:41;20.42;;;13.25;;
52035;SDS011;38046;49.448;32.074;2023-02-18T08:40:07;21.45;;;13.88;;
52035;SDS011;38046;49.448;32.074;2023-02-18T08:42:33;18.58;;;12.80;;
52035;SDS011;38046;49.448;32.074;2023-02-18T08:44:59;18.35;;;12.45;;
52035;SDS011;38046;49.448;32.074;2023-02-18T08:47:25;20.20;;;12.70;;
52035;SDS011;38046;49.448;32.074;2023-02-18T08:49:54;17.98;;;12.15;;
52035;SDS011;38046;49.448;32.074;2023-02-18T08:52:19;20.98;;;13.57;;
52035;SDS011;38046;49.448;32.074;2023-02-18T08:54:45;17.70;;;11.88;;
52035;SDS011;38046;49.448;32.074;2023-02-18T08:57:11;17.88;;;12.23;;
52035;SDS011;38046;49.448;32.074;2023-02-18T08:59:37;20.45;;;13.38;;
52035;SDS011;38046;49.448;32.074;2023-02-18T09:02:03;17.45;;;12.15;;
52035;SDS011;38046;49.448;32.074;2023-02-18T09:04:28;19.25;;;13.57;;
52035;SDS011;38046;49.448;32.074;2023-02-18T09:06:54;16.40;;;12.02;;
52035;SDS011;38046;49.448;32.074;2023-02-18T09:09:20;18.45;;;12.77;;
52035;SDS011;38046;49.448;32.074;2023-02-18T09:11:46;17.73;;;12.45;;
52035;SDS011;38046;49.448;32.074;2023-02-18T09:14:12;19.20;;;12.30;;
52035;SDS011;38046;49.448;32.074;2023-02-18T09:16:39;19.42;;;12.65;;
52035;SDS011;38046;49.448;32.074;2023-02-18T09:19:05;16.17;;;12.07;;
52035;SDS011;38046;49.448;32.074;2023-02-18T09:21:31;19.25;;;13.00;;
52035;SDS011;38046;49.448;32.074;2023-02-18T09:23:57;20.20;;;13.57;;
52035;SDS011;38046;49.448;32.074;2023-02-18T09:26:23;18.17;;;12.98;;
52035;SDS011;38046;49.448;32.074;2023-02-18T09:28:50;19.15;;;13.00;;
52035;SDS011;38046;49.448;32.074;2023-02-18T09:31:18;16.95;;;12.38;;
52035;SDS011;38046;49.448;32.074;2023-02-18T09:33:49;18.33;;;11.88;;
52035;SDS011;38046;49.448;32.074;2023-02-18T09:36:17;18.73;;;12.65;;
52035;SDS011;38046;49.448;32.074;2023-02-18T09:38:44;19.92;;;12.15;;
52035;SDS011;38046;49.448;32.074;2023-02-18T09:44:17;17.55;;;12.27;;
52035;SDS011;38046;49.448;32.074;2023-02-18T09:49:38;17.08;;;11.13;;
52035;SDS011;38046;49.448;32.074;2023-02-18T09:52:12;16.70;;;11.38;;
52035;SDS011;38046;49.448;32.074;2023-02-18T09:54:41;18.58;;;12.40;;
52035;SDS011;38046;49.448;32.074;2023-02-18T09:57:14;16.95;;;11.38;;
52035;SDS011;38046;49.448;32.074;2023-02-18T09:59:58;16.00;;;11.85;;
52035;SDS011;38046;49.448;32.074;2023-02-18T10:02:27;16.50;;;10.73;;
52035;SDS011;38046;49.448;32.074;2023-02-18T10:04:53;14.10;;;9.98;;
52035;SDS011;38046;49.448;32.074;2023-02-18T10:07:25;12.50;;;10.57;;
52035;SDS011;38046;49.448;32.074;2023-02-18T10:09:54;14.88;;;10.13;;
52035;SDS011;38046;49.448;32.074;2023-02-18T10:12:24;13.75;;;9.63;;
52035;SDS011;38046;49.448;32.074;2023-02-18T10:14:51;14.63;;;10.57;;
52035;SDS011;38046;49.448;32.074;2023-02-18T10:17:20;13.25;;;9.02;;
52035;SDS011;38046;49.448;32.074;2023-02-18T10:19:49;8.88;;;6.60;;
52035;SDS011;38046;49.448;32.074;2023-02-18T10:22:16;8.52;;;6.38;;
52035;SDS011;38046;49.448;32.074;2023-02-18T10:24:43;10.88;;;6.28;;
52035;SDS011;38046;49.448;32.074;2023-02-18T10:27:16;6.32;;;5.32;;
52035;SDS011;38046;49.448;32.074;2023-02-18T10:29:54;8.98;;;5.93;;
52035;SDS011;38046;49.448;32.074;2023-02-18T10:32:26;8.07;;;5.50;;
52035;SDS011;38046;49.448;32.074;2023-02-18T10:46:07;4.90;;;3.97;;
52035;SDS011;38046;49.448;32.074;2023-02-18T10:51:39;6.32;;;4.38;;
52035;SDS011;38046;49.448;32.074;2023-02-18T10:54:11;7.00;;;4.30;;
52035;SDS011;38046;49.448;32.074;2023-02-18T10:56:49;7.38;;;5.05;;
52035;SDS011;38046;49.448;32.074;2023-02-18T10:59:22;6.63;;;4.40;;
52035;SDS011;38046;49.448;32.074;2023-02-18T11:04:46;7.28;;;4.35;;
52035;SDS011;38046;49.448;32.074;2023-02-18T11:07:12;5.85;;;4.32;;
52035;SDS011;38046;49.448;32.074;2023-02-18T11:09:47;5.57;;;4.35;;
52035;SDS011;38046;49.448;32.074;2023-02-18T11:12:21;7.55;;;4.57;;
52035;SDS011;38046;49.448;32.074;2023-02-18T11:17:34;5.90;;;3.97;;
52035;SDS011;38046;49.448;32.074;2023-02-18T11:25:31;6.22;;;3.63;;
52035;SDS011;38046;49.448;32.074;2023-02-18T11:30:43;3.60;;;3.30;;
52035;SDS011;38046;49.448;32.074;2023-02-18T11:33:16;5.10;;;3.30;;
52035;SDS011;38046;49.448;32.074;2023-02-18T11:35:51;4.15;;;3.05;;
52035;SDS011;38046;49.448;32.074;2023-02-18T11:41:16;6.25;;;3.65;;
52035;SDS011;38046;49.448;32.074;2023-02-18T11:44:04;6.15;;;4.07;;
52035;SDS011;38046;49.448;32.074;2023-02-18T11:46:40;4.15;;;3.05;;
52035;SDS011;38046;49.448;32.074;2023-02-18T11:49:41;4.28;;;2.97;;
52035;SDS011;38046;49.448;32.074;2023-02-18T11:52:18;3.55;;;2.70;;
52035;SDS011;38046;49.448;32.074;2023-02-18T11:54:58;4.13;;;2.90;;
52035;SDS011;38046;49.448;32.074;2023-02-18T11:57:33;3.80;;;2.83;;
52035;SDS011;38046;49.448;32.074;2023-02-18T12:00:01;4.85;;;2.78;;
52035;SDS011;38046;49.448;32.074;2023-02-18T12:02:32;6.28;;;3.30;;
52035;SDS011;38046;49.448;32.074;2023-02-18T12:05:11;5.13;;;3.13;;
52035;SDS011;38046;49.448;32.074;2023-02-18T12:08:02;3.65;;;3.17;;
52035;SDS011;38046;49.448;32.074;2023-02-18T12:10:59;4.88;;;3.17;;
52035;SDS011;38046;49.448;32.074;2023-02-18T12:13:29;5.22;;;2.90;;
52035;SDS011;38046;49.448;32.074;2023-02-18T12:27:13;5.13;;;2.65;;
52035;SDS011;38046;49.448;32.074;2023-02-18T12:30:17;5.20;;;2.72;;
52035;SDS011;38046;49.448;32.074;2023-02-18T12:33:07;5.10;;;2.83;;
52035;SDS011;38046;49.448;32.074;2023-02-18T12:49:13;4.30;;;2.83;;
52035;SDS011;38046;49.448;32.074;2023-02-18T12:51:49;4.45;;;2.70;;
52035;SDS011;38046;49.448;32.074;2023-02-18T13:06:00;4.03;;;2.60;;
52035;SDS011;38046;49.448;32.074;2023-02-18T13:14:32;6.82;;;3.10;;
52035;SDS011;38046;49.448;32.074;2023-02-18T13:17:21;4.85;;;3.30;;
52035;SDS011;38046;49.448;32.074;2023-02-18T13:19:57;7.43;;;2.97;;
52035;SDS011;38046;49.448;32.074;2023-02-18T13:22:27;4.00;;;2.63;;
52035;SDS011;38046;49.448;32.074;2023-02-18T13:24:55;5.63;;;2.65;;
52035;SDS011;38046;49.448;32.074;2023-02-18T13:35:24;3.08;;;2.70;;
52035;SDS011;38046;49.448;32.074;2023-02-18T13:40:43;5.60;;;3.10;;
52035;SDS011;38046;49.448;32.074;2023-02-18T13:49:25;4.50;;;2.88;;
52035;SDS011;38046;49.448;32.074;2023-02-18T13:54:32;6.22;;;2.63;;
52035;SDS011;38046;49.448;32.074;2023-02-18T13:57:20;4.07;;;2.45;;
52035;SDS011;38046;49.448;32.074;2023-02-18T13:59:53;4.13;;;2.65;;
52035;SDS011;38046;49.448;32.074;2023-02-18T14:04:49;3.20;;;2.60;;
52035;SDS011;38046;49.448;32.074;2023-02-18T14:10:24;3.75;;;2.53;;
52035;SDS011;38046;49.448;32.074;2023-02-18T14:18:07;4.75;;;2.90;;
52035;SDS011;38046;49.448;32.074;2023-02-18T14:25:47;3.70;;;2.50;;
52035;SDS011;38046;49.448;32.074;2023-02-18T14:33:53;4.90;;;2.53;;
52035;SDS011;38046;49.448;32.074;2023-02-18T14:47:28;3.22;;;2.63;;
52035;SDS011;38046;49.448;32.074;2023-02-18T14:50:03;4.10;;;2.63;;
52035;SDS011;38046;49.448;32.074;2023-02-18T14:52:43;4.40;;;3.08;;
52035;SDS011;38046;49.448;32.074;2023-02-18T14:57:50;3.70;;;2.75;;
52035;SDS011;38046;49.448;32.074;2023-02-18T15:00:40;4.00;;;2.90;;
52035;SDS011;38046;49.448;32.074;2023-02-18T15:03:11;4.32;;;2.70;;
52035;SDS011;38046;49.448;32.074;2023-02-18T15:05:40;2.70;;;2.50;;
52035;SDS011;38046;49.448;32.074;2023-02-18T15:08:11;4.40;;;2.80;;
52035;SDS011;38046;49.448;32.074;2023-02-18T15:13:08;4.75;;;2.92;;
52035;SDS011;38046;49.448;32.074;2023-02-18T15:15:54;4.75;;;2.80;;
52035;SDS011;38046;49.448;32.074;2023-02-18T15:18:35;3.45;;;2.92;;
52035;SDS011;38046;49.448;32.074;2023-02-18T15:21:07;5.97;;;3.00;;
52035;SDS011;38046;49.448;32.074;2023-02-18T15:23:40;4.40;;;3.03;;
52035;SDS011;38046;49.448;32.074;2023-02-18T15:26:06;3.25;;;2.80;;
52035;SDS011;38046;49.448;32.074;2023-02-18T15:28:40;3.00;;;2.63;;
52035;SDS011;38046;49.448;32.074;2023-02-18T15:31:25;5.35;;;3.03;;
52035;SDS011;38046;49.448;32.074;2023-02-18T15:33:52;4.72;;;3.10;;
52035;SDS011;38046;49.448;32.074;2023-02-18T15:36:18;3.72;;;2.92;;
52035;SDS011;38046;49.448;32.074;2023-02-18T15:38:43;3.85;;;3.00;;
52035;SDS011;38046;49.448;32.074;2023-02-18T15:41:13;6.50;;;3.60;;
52035;SDS011;38046;49.448;32.074;2023-02-18T15:46:29;4.40;;;3.10;;
52035;SDS011;38046;49.448;32.074;2023-02-18T15:48:56;5.65;;;2.80;;
52035;SDS011;38046;49.448;32.074;2023-02-18T15:51:27;5.22;;;3.63;;
52035;SDS011;38046;49.448;32.074;2023-02-18T15:53:58;5.82;;;3.40;;
52035;SDS011;38046;49.448;32.074;2023-02-18T15:56:31;5.43;;;3.55;;
52035;SDS011;38046;49.448;32.074;2023-02-18T15:59:07;6.45;;;3.08;;
52035;SDS011;38046;49.448;32.074;2023-02-18T16:04:12;5.80;;;3.25;;
52035;SDS011;38046;49.448;32.074;2023-02-18T16:06:43;4.78;;;2.90;;
52035;SDS011;38046;49.448;32.074;2023-02-18T16:09:24;4.80;;;3.20;;
52035;SDS011;38046;49.448;32.074;2023-02-18T16:11:55;6.95;;;3.60;;
52035;SDS011;38046;49.448;32.074;2023-02-18T16:14:34;3.80;;;3.00;;
52035;SDS011;38046;49.448;32.074;2023-02-18T16:20:02;4.97;;;2.90;;
52035;SDS011;38046;49.448;32.074;2023-02-18T16:22:49;5.65;;;3.40;;
52035;SDS011;38046;49.448;32.074;2023-02-18T16:25:20;3.55;;;2.95;;
52035;SDS011;38046;49.448;32.074;2023-02-18T16:30:24;5.75;;;3.40;;
52035;SDS011;38046;49.448;32.074;2023-02-18T16:32:51;3.85;;;2.90;;
52035;SDS011;38046;49.448;32.074;2023-02-18T16:35:18;8.82;;;3.75;;
52035;SDS011;38046;49.448;32.074;2023-02-18T16:37:45;4.70;;;3.53;;
52035;SDS011;38046;49.448;32.074;2023-02-18T16:43:08;6.03;;;3.25;;
52035;SDS011;38046;49.448;32.074;2023-02-18T16:45:42;5.03;;;3.17;;
52035;SDS011;38046;49.448;32.074;2023-02-18T16:51:05;5.05;;;3.35;;
52035;SDS011;38046;49.448;32.074;2023-02-18T16:53:35;5.78;;;3.33;;
52035;SDS011;38046;49.448;32.074;2023-02-18T16:56:01;4.43;;;3.20;;
52035;SDS011;38046;49.448;32.074;2023-02-18T16:58:27;4.90;;;3.28;;
52035;SDS011;38046;49.448;32.074;2023-02-18T17:00:53;5.05;;;3.35;;
52035;SDS011;38046;49.448;32.074;2023-02-18T17:03:19;6.82;;;3.72;;
52035;SDS011;38046;49.448;32.074;2023-02-18T17:05:45;3.97;;;3.45;;
52035;SDS011;38046;49.448;32.074;2023-02-18T17:10:41;4.22;;;3.50;;
52035;SDS011;38046;49.448;32.074;2023-02-18T17:13:10;4.60;;;3.10;;
52035;SDS011;38046;49.448;32.074;2023-02-18T17:18:04;4.57;;;3.20;;
52035;SDS011;38046;49.448;32.074;2023-02-18T17:20:30;3.55;;;2.67;;
52035;SDS011;38046;49.448;32.074;2023-02-18T17:22:57;3.30;;;2.80;;
52035;SDS011;38046;49.448;32.074;2023-02-18T17:25:26;3.72;;;3.05;;
52035;SDS011;38046;49.448;32.074;2023-02-18T17:27:59;2.70;;;2.50;;
52035;SDS011;38046;49.448;32.074;2023-02-18T17:30:25;5.30;;;2.97;;
52035;SDS011;38046;49.448;32.074;2023-02-18T17:32:51;5.18;;;3.17;;
52035;SDS011;38046;49.448;32.074;2023-02-18T17:35:18;5.13;;;3.10;;
52035;SDS011;38046;49.448;32.074;2023-02-18T17:37:45;5.60;;;3.10;;
52035;SDS011;38046;49.448;32.074;2023-02-18T17:40:16;5.45;;;3.20;;
52035;SDS011;38046;49.448;32.074;2023-02-18T17:42:44;3.17;;;2.88;;
52035;SDS011;38046;49.448;32.074;2023-02-18T17:45:14;5.55;;;3.17;;
52035;SDS011;38046;49.448;32.074;2023-02-18T17:47:44;6.15;;;3.45;;
52035;SDS011;38046;49.448;32.074;2023-02-18T17:50:09;3.92;;;2.90;;
52035;SDS011;38046;49.448;32.074;2023-02-18T17:52:35;4.20;;;3.00;;
52035;SDS011;38046;49.448;32.074;2023-02-18T17:55:07;5.80;;;3.58;;
52035;SDS011;38046;49.448;32.074;2023-02-18T17:57:42;2.97;;;2.70;;